KMCB/MCB METAR and TAF weather

Enter ICAO airport designator
Station Type Date Time Source
KMCB METAR 2019/06/20 07:53 UTC NOAA

KMCB 200753Z AUTO 19003KT 10SM +RA CLR 24/23 A2990 RMK AO2 SLP118 T02440228 PNO $


Station Type Date Time Source
KMCB Decoded METAR 2019/06/20 07:53 UTC NOAA

MCCOMB/PIKE COUNTY AIRPORT, MS, United States (KMCB) 31-11N 90-28W 124M
Jun 20, 2019 - 03:53 AM EDT / 2019.06.20 0753 UTC
Wind: from the S (190 degrees) at 3 MPH (3 KT):0
Visibility: 10 mile(s):0
Sky conditions: clear
Weather: heavy rain
Temperature: 75.9 F (24.4 C)
Dew Point: 73.0 F (22.8 C)
Relative Humidity: 90%
Pressure (altimeter): 29.9 in. Hg (1012 hPa)
ob: KMCB 200753Z AUTO 19003KT 10SM +RA CLR 24/23 A2990 RMK AO2 SLP118 T02440228 PNO
cycle: 8

Station Type Date Time Source
KMCB TAF 2019/06/20 06:22 UTC NOAA

TAF KMCB 200520Z 2006/2106 21005KT P6SM SKC
FM200900 22006KT P6SM OVC020
FM201500 23010G20KT P6SM SCT020 BKN035
FM210100 21006KT P6SM FEW060 FEW200

Example: see airport list